sensor_id;sensor_type;location;lat;lon;timestamp;temperature;humidity
5806;DHT22;2929;50.810;8.342;2022-08-21T00:01:31;15.40;99.90
5806;DHT22;2929;50.810;8.342;2022-08-21T00:03:58;15.40;99.90
5806;DHT22;2929;50.810;8.342;2022-08-21T00:06:30;15.30;99.90
5806;DHT22;2929;50.810;8.342;2022-08-21T00:08:58;15.20;99.90
5806;DHT22;2929;50.810;8.342;2022-08-21T00:11:25;15.10;99.90
5806;DHT22;2929;50.810;8.342;2022-08-21T00:13:53;14.90;99.90
5806;DHT22;2929;50.810;8.342;2022-08-21T00:16:20;14.90;99.90
5806;DHT22;2929;50.810;8.342;2022-08-21T00:18:48;14.80;99.90
5806;DHT22;2929;50.810;8.342;2022-08-21T00:21:16;14.70;99.90
5806;DHT22;2929;50.810;8.342;2022-08-21T00:23:43;14.70;99.90
5806;DHT22;2929;50.810;8.342;2022-08-21T00:26:10;14.60;99.90
5806;DHT22;2929;50.810;8.342;2022-08-21T00:28:37;14.50;99.90
5806;DHT22;2929;50.810;8.342;2022-08-21T00:31:04;14.50;99.90
5806;DHT22;2929;50.810;8.342;2022-08-21T00:33:32;14.30;99.90
5806;DHT22;2929;50.810;8.342;2022-08-21T00:36:01;14.20;99.90
5806;DHT22;2929;50.810;8.342;2022-08-21T00:38:28;14.10;99.90
5806;DHT22;2929;50.810;8.342;2022-08-21T00:40:58;13.90;99.90
5806;DHT22;2929;50.810;8.342;2022-08-21T00:43:28;13.90;99.90
5806;DHT22;2929;50.810;8.342;2022-08-21T00:45:57;13.90;99.90
5806;DHT22;2929;50.810;8.342;2022-08-21T00:48:25;13.90;99.90
5806;DHT22;2929;50.810;8.342;2022-08-21T00:50:56;13.70;99.90
5806;DHT22;2929;50.810;8.342;2022-08-21T00:53:25;13.80;99.90
5806;DHT22;2929;50.810;8.342;2022-08-21T00:55:52;13.60;99.90
5806;DHT22;2929;50.810;8.342;2022-08-21T00:58:20;13.50;99.90
5806;DHT22;2929;50.810;8.342;2022-08-21T01:00:49;13.50;99.90
5806;DHT22;2929;50.810;8.342;2022-08-21T01:03:18;13.40;99.90
5806;DHT22;2929;50.810;8.342;2022-08-21T01:05:46;13.10;99.90
5806;DHT22;2929;50.810;8.342;2022-08-21T01:08:14;13.10;99.90
5806;DHT22;2929;50.810;8.342;2022-08-21T01:10:43;12.90;99.90
5806;DHT22;2929;50.810;8.342;2022-08-21T01:13:13;12.90;99.90
5806;DHT22;2929;50.810;8.342;2022-08-21T01:15:44;12.70;99.90
5806;DHT22;2929;50.810;8.342;2022-08-21T01:18:12;12.80;99.90
5806;DHT22;2929;50.810;8.342;2022-08-21T01:20:43;12.70;99.90
5806;DHT22;2929;50.810;8.342;2022-08-21T01:23:12;12.60;99.90
5806;DHT22;2929;50.810;8.342;2022-08-21T01:25:39;12.50;99.90
5806;DHT22;2929;50.810;8.342;2022-08-21T01:28:12;12.40;99.90
5806;DHT22;2929;50.810;8.342;2022-08-21T01:30:42;12.50;99.90
5806;DHT22;2929;50.810;8.342;2022-08-21T01:33:10;12.50;99.90
5806;DHT22;2929;50.810;8.342;2022-08-21T01:35:38;12.50;99.90
5806;DHT22;2929;50.810;8.342;2022-08-21T01:38:05;12.50;99.90
5806;DHT22;2929;50.810;8.342;2022-08-21T01:40:33;12.50;99.90
5806;DHT22;2929;50.810;8.342;2022-08-21T01:43:01;12.50;99.90
5806;DHT22;2929;50.810;8.342;2022-08-21T01:45:29;12.50;99.90
5806;DHT22;2929;50.810;8.342;2022-08-21T01:47:56;12.60;99.90
5806;DHT22;2929;50.810;8.342;2022-08-21T01:50:23;12.60;99.90
5806;DHT22;2929;50.810;8.342;2022-08-21T01:52:50;12.40;99.90
5806;DHT22;2929;50.810;8.342;2022-08-21T01:55:19;12.30;99.90
5806;DHT22;2929;50.810;8.342;2022-08-21T01:57:48;12.40;99.90
5806;DHT22;2929;50.810;8.342;2022-08-21T02:00:18;12.30;99.90
5806;DHT22;2929;50.810;8.342;2022-08-21T02:02:48;12.30;99.90
5806;DHT22;2929;50.810;8.342;2022-08-21T02:05:15;12.20;99.90
5806;DHT22;2929;50.810;8.342;2022-08-21T02:07:46;12.10;99.90
5806;DHT22;2929;50.810;8.342;2022-08-21T02:10:15;12.00;99.90
5806;DHT22;2929;50.810;8.342;2022-08-21T02:12:42;12.20;99.90
5806;DHT22;2929;50.810;8.342;2022-08-21T02:15:11;12.30;99.90
5806;DHT22;2929;50.810;8.342;2022-08-21T02:17:40;12.30;99.90
5806;DHT22;2929;50.810;8.342;2022-08-21T02:20:09;12.40;99.90
5806;DHT22;2929;50.810;8.342;2022-08-21T02:22:36;12.50;99.90
5806;DHT22;2929;50.810;8.342;2022-08-21T02:25:04;12.50;99.90
5806;DHT22;2929;50.810;8.342;2022-08-21T02:27:37;12.30;99.90
5806;DHT22;2929;50.810;8.342;2022-08-21T02:30:06;12.30;99.90
5806;DHT22;2929;50.810;8.342;2022-08-21T02:32:35;12.40;99.90
5806;DHT22;2929;50.810;8.342;2022-08-21T02:35:03;12.40;99.90
5806;DHT22;2929;50.810;8.342;2022-08-21T02:37:30;12.40;99.90
5806;DHT22;2929;50.810;8.342;2022-08-21T02:39:59;12.50;99.90
5806;DHT22;2929;50.810;8.342;2022-08-21T02:42:25;12.50;99.90
5806;DHT22;2929;50.810;8.342;2022-08-21T02:44:53;12.40;99.90
5806;DHT22;2929;50.810;8.342;2022-08-21T02:47:20;12.20;99.90
5806;DHT22;2929;50.810;8.342;2022-08-21T02:49:48;12.20;99.90
5806;DHT22;2929;50.810;8.342;2022-08-21T02:52:15;12.10;99.90
5806;DHT22;2929;50.810;8.342;2022-08-21T02:54:42;12.00;99.90
5806;DHT22;2929;50.810;8.342;2022-08-21T02:57:09;12.00;99.90
5806;DHT22;2929;50.810;8.342;2022-08-21T02:59:36;12.20;99.90
5806;DHT22;2929;50.810;8.342;2022-08-21T03:02:03;12.20;99.90
5806;DHT22;2929;50.810;8.342;2022-08-21T03:04:30;12.30;99.90
5806;DHT22;2929;50.810;8.342;2022-08-21T03:06:59;12.30;99.90
5806;DHT22;2929;50.810;8.342;2022-08-21T03:09:26;12.30;99.90
5806;DHT22;2929;50.810;8.342;2022-08-21T03:11:53;12.30;99.90
5806;DHT22;2929;50.810;8.342;2022-08-21T03:14:20;12.30;99.90
5806;DHT22;2929;50.810;8.342;2022-08-21T03:16:47;12.30;99.90
5806;DHT22;2929;50.810;8.342;2022-08-21T03:19:14;12.40;99.90
5806;DHT22;2929;50.810;8.342;2022-08-21T03:21:41;12.40;99.90
5806;DHT22;2929;50.810;8.342;2022-08-21T03:24:09;12.30;99.90
5806;DHT22;2929;50.810;8.342;2022-08-21T03:26:36;12.30;99.90
5806;DHT22;2929;50.810;8.342;2022-08-21T03:29:03;12.30;99.90
5806;DHT22;2929;50.810;8.342;2022-08-21T03:31:31;12.20;99.90
5806;DHT22;2929;50.810;8.342;2022-08-21T03:33:58;12.20;99.90
5806;DHT22;2929;50.810;8.342;2022-08-21T03:36:25;12.20;99.90
5806;DHT22;2929;50.810;8.342;2022-08-21T03:38:52;12.20;99.90
5806;DHT22;2929;50.810;8.342;2022-08-21T03:41:21;12.20;99.90
5806;DHT22;2929;50.810;8.342;2022-08-21T03:43:48;12.10;99.90
5806;DHT22;2929;50.810;8.342;2022-08-21T03:46:15;11.90;99.90
5806;DHT22;2929;50.810;8.342;2022-08-21T03:48:42;11.80;99.90
5806;DHT22;2929;50.810;8.342;2022-08-21T03:51:09;11.60;99.90
5806;DHT22;2929;50.810;8.342;2022-08-21T03:53:37;11.60;99.90
5806;DHT22;2929;50.810;8.342;2022-08-21T03:56:05;11.50;99.90
5806;DHT22;2929;50.810;8.342;2022-08-21T03:58:33;11.40;99.90
5806;DHT22;2929;50.810;8.342;2022-08-21T04:01:02;11.20;99.90
5806;DHT22;2929;50.810;8.342;2022-08-21T04:03:30;11.30;99.90
5806;DHT22;2929;50.810;8.342;2022-08-21T04:05:57;11.20;99.90
5806;DHT22;2929;50.810;8.342;2022-08-21T04:08:24;11.00;99.90
5806;DHT22;2929;50.810;8.342;2022-08-21T04:10:54;11.00;99.90
5806;DHT22;2929;50.810;8.342;2022-08-21T04:13:22;11.10;99.90
5806;DHT22;2929;50.810;8.342;2022-08-21T04:15:50;11.10;99.90
5806;DHT22;2929;50.810;8.342;2022-08-21T04:18:18;11.10;99.90
5806;DHT22;2929;50.810;8.342;2022-08-21T04:20:47;11.20;99.90
5806;DHT22;2929;50.810;8.342;2022-08-21T04:23:15;11.30;99.90
5806;DHT22;2929;50.810;8.342;2022-08-21T04:25:42;11.40;99.90
5806;DHT22;2929;50.810;8.342;2022-08-21T04:28:10;11.50;99.90
5806;DHT22;2929;50.810;8.342;2022-08-21T04:30:37;11.60;99.90
5806;DHT22;2929;50.810;8.342;2022-08-21T04:33:06;11.70;99.90
5806;DHT22;2929;50.810;8.342;2022-08-21T04:35:33;11.70;99.90
5806;DHT22;2929;50.810;8.342;2022-08-21T04:38:00;11.70;99.90
5806;DHT22;2929;50.810;8.342;2022-08-21T04:40:27;11.60;99.90
5806;DHT22;2929;50.810;8.342;2022-08-21T04:42:57;11.50;99.90
5806;DHT22;2929;50.810;8.342;2022-08-21T04:45:27;11.60;99.90
5806;DHT22;2929;50.810;8.342;2022-08-21T04:47:57;11.50;99.90
5806;DHT22;2929;50.810;8.342;2022-08-21T04:50:29;11.40;99.90
5806;DHT22;2929;50.810;8.342;2022-08-21T04:53:04;11.20;99.90
5806;DHT22;2929;50.810;8.342;2022-08-21T04:55:32;11.30;99.90
5806;DHT22;2929;50.810;8.342;2022-08-21T04:58:00;11.20;99.90
5806;DHT22;2929;50.810;8.342;2022-08-21T05:00:27;11.20;99.90
5806;DHT22;2929;50.810;8.342;2022-08-21T05:02:56;11.30;99.90
5806;DHT22;2929;50.810;8.342;2022-08-21T05:05:27;11.40;99.90
5806;DHT22;2929;50.810;8.342;2022-08-21T05:07:55;11.50;99.90
5806;DHT22;2929;50.810;8.342;2022-08-21T05:10:23;11.40;99.90
5806;DHT22;2929;50.810;8.342;2022-08-21T05:12:50;11.40;99.90
5806;DHT22;2929;50.810;8.342;2022-08-21T05:15:17;11.40;99.90
5806;DHT22;2929;50.810;8.342;2022-08-21T05:17:45;11.40;99.90
5806;DHT22;2929;50.810;8.342;2022-08-21T05:20:13;11.50;99.90
5806;DHT22;2929;50.810;8.342;2022-08-21T05:22:42;11.60;99.90
5806;DHT22;2929;50.810;8.342;2022-08-21T05:25:09;11.80;99.90
5806;DHT22;2929;50.810;8.342;2022-08-21T05:27:37;12.00;99.90
5806;DHT22;2929;50.810;8.342;2022-08-21T05:30:05;12.00;99.90
5806;DHT22;2929;50.810;8.342;2022-08-21T05:32:34;12.10;99.90
5806;DHT22;2929;50.810;8.342;2022-08-21T05:35:01;12.20;99.90
5806;DHT22;2929;50.810;8.342;2022-08-21T05:37:28;12.30;99.90
5806;DHT22;2929;50.810;8.342;2022-08-21T05:39:56;12.40;99.90
5806;DHT22;2929;50.810;8.342;2022-08-21T05:42:23;12.30;99.90
5806;DHT22;2929;50.810;8.342;2022-08-21T05:44:50;12.40;99.90
5806;DHT22;2929;50.810;8.342;2022-08-21T05:47:17;12.60;99.90
5806;DHT22;2929;50.810;8.342;2022-08-21T05:49:44;12.70;99.90
5806;DHT22;2929;50.810;8.342;2022-08-21T05:52:11;12.80;99.90
5806;DHT22;2929;50.810;8.342;2022-08-21T05:54:38;12.90;99.90
5806;DHT22;2929;50.810;8.342;2022-08-21T05:57:06;12.80;99.90
5806;DHT22;2929;50.810;8.342;2022-08-21T05:59:34;13.00;99.90
5806;DHT22;2929;50.810;8.342;2022-08-21T06:02:02;13.00;99.90
5806;DHT22;2929;50.810;8.342;2022-08-21T06:04:29;13.10;99.90
5806;DHT22;2929;50.810;8.342;2022-08-21T06:06:56;13.20;99.90
5806;DHT22;2929;50.810;8.342;2022-08-21T06:09:23;13.30;99.90
5806;DHT22;2929;50.810;8.342;2022-08-21T06:11:50;13.40;99.90
5806;DHT22;2929;50.810;8.342;2022-08-21T06:14:18;13.40;99.90
5806;DHT22;2929;50.810;8.342;2022-08-21T06:16:45;13.50;99.90
5806;DHT22;2929;50.810;8.342;2022-08-21T06:19:12;13.50;99.90
5806;DHT22;2929;50.810;8.342;2022-08-21T06:21:39;13.40;99.90
5806;DHT22;2929;50.810;8.342;2022-08-21T06:24:06;13.60;99.90
5806;DHT22;2929;50.810;8.342;2022-08-21T06:26:33;13.70;99.90
5806;DHT22;2929;50.810;8.342;2022-08-21T06:29:00;14.00;99.90
5806;DHT22;2929;50.810;8.342;2022-08-21T06:31:29;14.10;99.90
5806;DHT22;2929;50.810;8.342;2022-08-21T06:33:56;14.20;99.90
5806;DHT22;2929;50.810;8.342;2022-08-21T06:36:23;14.30;99.90
5806;DHT22;2929;50.810;8.342;2022-08-21T06:38:50;14.50;99.90
5806;DHT22;2929;50.810;8.342;2022-08-21T06:41:18;14.60;99.90
5806;DHT22;2929;50.810;8.342;2022-08-21T06:43:45;14.80;99.90
5806;DHT22;2929;50.810;8.342;2022-08-21T06:46:12;14.90;99.90
5806;DHT22;2929;50.810;8.342;2022-08-21T06:48:40;15.10;99.90
5806;DHT22;2929;50.810;8.342;2022-08-21T06:51:07;15.20;99.90
5806;DHT22;2929;50.810;8.342;2022-08-21T06:53:34;15.30;99.90
5806;DHT22;2929;50.810;8.342;2022-08-21T06:56:02;15.30;99.90
5806;DHT22;2929;50.810;8.342;2022-08-21T06:58:29;15.40;99.90
5806;DHT22;2929;50.810;8.342;2022-08-21T07:00:57;15.60;99.90
5806;DHT22;2929;50.810;8.342;2022-08-21T07:03:26;15.70;99.90
5806;DHT22;2929;50.810;8.342;2022-08-21T07:05:55;15.80;99.90
5806;DHT22;2929;50.810;8.342;2022-08-21T07:08:24;15.90;99.90
5806;DHT22;2929;50.810;8.342;2022-08-21T07:10:52;16.00;99.90
5806;DHT22;2929;50.810;8.342;2022-08-21T07:13:19;16.10;99.90
5806;DHT22;2929;50.810;8.342;2022-08-21T07:15:46;16.30;99.90
5806;DHT22;2929;50.810;8.342;2022-08-21T07:18:14;16.30;99.90
5806;DHT22;2929;50.810;8.342;2022-08-21T07:20:42;16.50;99.90
5806;DHT22;2929;50.810;8.342;2022-08-21T07:23:12;16.60;99.90
5806;DHT22;2929;50.810;8.342;2022-08-21T07:25:42;16.70;99.90
5806;DHT22;2929;50.810;8.342;2022-08-21T07:28:09;16.80;99.90
5806;DHT22;2929;50.810;8.342;2022-08-21T07:30:36;16.80;99.90
5806;DHT22;2929;50.810;8.342;2022-08-21T07:33:03;17.00;99.90
5806;DHT22;2929;50.810;8.342;2022-08-21T07:35:30;17.10;99.90
5806;DHT22;2929;50.810;8.342;2022-08-21T07:37:58;17.20;99.90
5806;DHT22;2929;50.810;8.342;2022-08-21T07:40:27;17.20;99.90
5806;DHT22;2929;50.810;8.342;2022-08-21T07:42:54;17.40;99.90
5806;DHT22;2929;50.810;8.342;2022-08-21T07:45:22;17.50;99.90
5806;DHT22;2929;50.810;8.342;2022-08-21T07:47:50;17.60;99.90
5806;DHT22;2929;50.810;8.342;2022-08-21T07:50:18;17.60;99.90
5806;DHT22;2929;50.810;8.342;2022-08-21T07:52:46;17.60;99.90
5806;DHT22;2929;50.810;8.342;2022-08-21T07:55:15;17.80;99.90
5806;DHT22;2929;50.810;8.342;2022-08-21T07:57:44;18.00;99.90
5806;DHT22;2929;50.810;8.342;2022-08-21T08:00:13;18.10;99.90
5806;DHT22;2929;50.810;8.342;2022-08-21T08:02:44;18.20;99.90
5806;DHT22;2929;50.810;8.342;2022-08-21T08:05:12;18.30;99.90
5806;DHT22;2929;50.810;8.342;2022-08-21T08:07:39;18.50;99.90
5806;DHT22;2929;50.810;8.342;2022-08-21T08:10:08;18.70;99.90
5806;DHT22;2929;50.810;8.342;2022-08-21T08:12:36;18.90;99.90
5806;DHT22;2929;50.810;8.342;2022-08-21T08:15:07;19.10;99.90
5806;DHT22;2929;50.810;8.342;2022-08-21T08:17:35;19.40;99.90
5806;DHT22;2929;50.810;8.342;2022-08-21T08:20:04;19.60;99.90
5806;DHT22;2929;50.810;8.342;2022-08-21T08:22:31;19.70;99.90
5806;DHT22;2929;50.810;8.342;2022-08-21T08:24:58;19.80;99.90
5806;DHT22;2929;50.810;8.342;2022-08-21T08:27:25;19.90;99.90
5806;DHT22;2929;50.810;8.342;2022-08-21T08:29:52;20.00;99.90
5806;DHT22;2929;50.810;8.342;2022-08-21T08:32:20;20.00;99.90
5806;DHT22;2929;50.810;8.342;2022-08-21T08:34:48;20.10;99.90
5806;DHT22;2929;50.810;8.342;2022-08-21T08:37:17;20.20;99.90
5806;DHT22;2929;50.810;8.342;2022-08-21T08:39:45;20.30;99.90
5806;DHT22;2929;50.810;8.342;2022-08-21T08:42:13;20.40;99.90
5806;DHT22;2929;50.810;8.342;2022-08-21T08:44:41;20.50;99.90
5806;DHT22;2929;50.810;8.342;2022-08-21T08:47:09;20.50;99.90
5806;DHT22;2929;50.810;8.342;2022-08-21T08:49:45;20.60;99.90
5806;DHT22;2929;50.810;8.342;2022-08-21T08:52:18;20.80;99.90
5806;DHT22;2929;50.810;8.342;2022-08-21T08:54:51;20.80;99.90
5806;DHT22;2929;50.810;8.342;2022-08-21T08:57:22;20.80;99.90
5806;DHT22;2929;50.810;8.342;2022-08-21T08:59:51;20.90;99.90
5806;DHT22;2929;50.810;8.342;2022-08-21T09:02:19;20.90;99.90
5806;DHT22;2929;50.810;8.342;2022-08-21T09:04:51;20.80;99.90
5806;DHT22;2929;50.810;8.342;2022-08-21T09:07:28;20.80;99.90
5806;DHT22;2929;50.810;8.342;2022-08-21T09:10:05;20.90;99.90
5806;DHT22;2929;50.810;8.342;2022-08-21T09:12:44;21.00;99.00
5806;DHT22;2929;50.810;8.342;2022-08-21T09:15:19;21.00;98.70
5806;DHT22;2929;50.810;8.342;2022-08-21T09:21:06;21.10;98.20
5806;DHT22;2929;50.810;8.342;2022-08-21T09:23:43;21.30;99.30
5806;DHT22;2929;50.810;8.342;2022-08-21T09:26:14;21.30;99.80
5806;DHT22;2929;50.810;8.342;2022-08-21T09:28:43;21.40;99.80
5806;DHT22;2929;50.810;8.342;2022-08-21T09:31:16;21.50;98.30
5806;DHT22;2929;50.810;8.342;2022-08-21T09:33:47;21.50;99.90
5806;DHT22;2929;50.810;8.342;2022-08-21T09:36:25;21.30;99.10
5806;DHT22;2929;50.810;8.342;2022-08-21T09:38:54;21.10;98.70
5806;DHT22;2929;50.810;8.342;2022-08-21T09:41:29;21.10;99.60
5806;DHT22;2929;50.810;8.342;2022-08-21T09:43:57;21.30;97.60
5806;DHT22;2929;50.810;8.342;2022-08-21T09:46:26;21.10;94.50
5806;DHT22;2929;50.810;8.342;2022-08-21T09:48:56;21.40;94.40
5806;DHT22;2929;50.810;8.342;2022-08-21T09:51:26;21.50;96.20
5806;DHT22;2929;50.810;8.342;2022-08-21T09:53:58;21.70;95.60
5806;DHT22;2929;50.810;8.342;2022-08-21T09:56:30;22.00;94.90
5806;DHT22;2929;50.810;8.342;2022-08-21T09:59:18;22.00;94.50
5806;DHT22;2929;50.810;8.342;2022-08-21T10:01:47;22.00;94.90
5806;DHT22;2929;50.810;8.342;2022-08-21T10:04:20;22.20;95.80
5806;DHT22;2929;50.810;8.342;2022-08-21T10:06:49;22.00;94.60
5806;DHT22;2929;50.810;8.342;2022-08-21T10:09:19;22.10;94.20
5806;DHT22;2929;50.810;8.342;2022-08-21T10:11:53;22.10;93.30
5806;DHT22;2929;50.810;8.342;2022-08-21T10:14:36;22.30;92.70
5806;DHT22;2929;50.810;8.342;2022-08-21T10:17:14;22.20;91.70
5806;DHT22;2929;50.810;8.342;2022-08-21T10:19:48;22.30;91.80
5806;DHT22;2929;50.810;8.342;2022-08-21T10:22:28;22.20;91.40
5806;DHT22;2929;50.810;8.342;2022-08-21T10:25:05;22.50;91.70
5806;DHT22;2929;50.810;8.342;2022-08-21T10:27:39;22.80;91.60
5806;DHT22;2929;50.810;8.342;2022-08-21T10:30:11;22.60;90.60
5806;DHT22;2929;50.810;8.342;2022-08-21T10:32:59;22.90;91.10
5806;DHT22;2929;50.810;8.342;2022-08-21T10:35:33;23.20;91.10
5806;DHT22;2929;50.810;8.342;2022-08-21T10:38:41;23.20;90.20
5806;DHT22;2929;50.810;8.342;2022-08-21T10:41:16;23.40;91.50
5806;DHT22;2929;50.810;8.342;2022-08-21T10:43:52;23.40;90.60
5806;DHT22;2929;50.810;8.342;2022-08-21T10:46:40;23.50;91.50
5806;DHT22;2929;50.810;8.342;2022-08-21T10:49:18;23.80;90.50
5806;DHT22;2929;50.810;8.342;2022-08-21T10:51:52;23.90;91.20
5806;DHT22;2929;50.810;8.342;2022-08-21T10:54:32;24.00;93.10
5806;DHT22;2929;50.810;8.342;2022-08-21T10:57:06;23.80;87.80
5806;DHT22;2929;50.810;8.342;2022-08-21T10:59:41;23.90;88.50
5806;DHT22;2929;50.810;8.342;2022-08-21T11:02:15;24.00;90.10
5806;DHT22;2929;50.810;8.342;2022-08-21T11:04:52;24.30;87.70
5806;DHT22;2929;50.810;8.342;2022-08-21T11:07:26;24.70;85.90
5806;DHT22;2929;50.810;8.342;2022-08-21T11:10:00;24.90;82.20
5806;DHT22;2929;50.810;8.342;2022-08-21T11:12:34;25.30;82.40
5806;DHT22;2929;50.810;8.342;2022-08-21T11:18:15;25.60;80.20
5806;DHT22;2929;50.810;8.342;2022-08-21T11:20:46;25.50;81.70
5806;DHT22;2929;50.810;8.342;2022-08-21T11:23:21;25.50;80.80
5806;DHT22;2929;50.810;8.342;2022-08-21T11:25:53;25.80;82.70
5806;DHT22;2929;50.810;8.342;2022-08-21T11:28:26;26.30;83.30
5806;DHT22;2929;50.810;8.342;2022-08-21T11:31:05;26.20;79.30
5806;DHT22;2929;50.810;8.342;2022-08-21T11:33:47;26.30;81.50
5806;DHT22;2929;50.810;8.342;2022-08-21T11:36:19;26.20;85.00
5806;DHT22;2929;50.810;8.342;2022-08-21T11:38:54;25.90;85.30
5806;DHT22;2929;50.810;8.342;2022-08-21T11:41:29;26.20;86.30
5806;DHT22;2929;50.810;8.342;2022-08-21T11:44:07;26.50;82.20
5806;DHT22;2929;50.810;8.342;2022-08-21T11:46:44;27.20;78.60
5806;DHT22;2929;50.810;8.342;2022-08-21T11:49:34;27.30;78.50
5806;DHT22;2929;50.810;8.342;2022-08-21T11:52:13;27.80;79.10
5806;DHT22;2929;50.810;8.342;2022-08-21T11:54:45;27.60;78.30
5806;DHT22;2929;50.810;8.342;2022-08-21T11:57:20;27.20;76.10
5806;DHT22;2929;50.810;8.342;2022-08-21T11:59:52;27.50;75.40
5806;DHT22;2929;50.810;8.342;2022-08-21T12:02:22;27.80;73.60
5806;DHT22;2929;50.810;8.342;2022-08-21T12:04:53;28.80;72.50
5806;DHT22;2929;50.810;8.342;2022-08-21T12:07:34;29.30;73.20
5806;DHT22;2929;50.810;8.342;2022-08-21T12:10:03;29.40;70.50
5806;DHT22;2929;50.810;8.342;2022-08-21T12:12:33;29.30;71.60
5806;DHT22;2929;50.810;8.342;2022-08-21T12:15:16;29.80;68.10
5806;DHT22;2929;50.810;8.342;2022-08-21T12:17:57;30.20;67.00
5806;DHT22;2929;50.810;8.342;2022-08-21T12:20:41;28.70;66.80
5806;DHT22;2929;50.810;8.342;2022-08-21T12:23:27;27.90;68.80
5806;DHT22;2929;50.810;8.342;2022-08-21T12:26:22;28.00;71.00
5806;DHT22;2929;50.810;8.342;2022-08-21T12:29:07;28.70;65.80
5806;DHT22;2929;50.810;8.342;2022-08-21T12:31:48;29.20;67.20
5806;DHT22;2929;50.810;8.342;2022-08-21T12:34:15;29.90;65.80
5806;DHT22;2929;50.810;8.342;2022-08-21T12:36:45;30.10;64.60
5806;DHT22;2929;50.810;8.342;2022-08-21T12:39:17;29.80;60.80
5806;DHT22;2929;50.810;8.342;2022-08-21T12:41:51;29.80;66.30
5806;DHT22;2929;50.810;8.342;2022-08-21T12:44:26;29.10;66.00
5806;DHT22;2929;50.810;8.342;2022-08-21T12:46:57;29.40;64.30
5806;DHT22;2929;50.810;8.342;2022-08-21T12:49:28;30.10;64.30
5806;DHT22;2929;50.810;8.342;2022-08-21T12:52:02;30.30;62.50
5806;DHT22;2929;50.810;8.342;2022-08-21T12:54:38;30.50;61.70
5806;DHT22;2929;50.810;8.342;2022-08-21T12:57:08;30.60;62.70
5806;DHT22;2929;50.810;8.342;2022-08-21T12:59:39;30.00;62.90
5806;DHT22;2929;50.810;8.342;2022-08-21T13:02:16;29.20;64.00
5806;DHT22;2929;50.810;8.342;2022-08-21T13:04:46;28.60;64.70
5806;DHT22;2929;50.810;8.342;2022-08-21T13:07:27;28.80;65.80
5806;DHT22;2929;50.810;8.342;2022-08-21T13:09:57;29.00;64.30
5806;DHT22;2929;50.810;8.342;2022-08-21T13:12:26;28.30;65.00
5806;DHT22;2929;50.810;8.342;2022-08-21T13:14:58;27.60;66.00
5806;DHT22;2929;50.810;8.342;2022-08-21T13:17:27;27.60;66.20
5806;DHT22;2929;50.810;8.342;2022-08-21T13:19:58;27.70;68.10
5806;DHT22;2929;50.810;8.342;2022-08-21T13:22:27;28.50;62.10
5806;DHT22;2929;50.810;8.342;2022-08-21T13:24:54;29.00;61.20
5806;DHT22;2929;50.810;8.342;2022-08-21T13:27:24;28.70;64.00
5806;DHT22;2929;50.810;8.342;2022-08-21T13:30:10;28.20;63.20
5806;DHT22;2929;50.810;8.342;2022-08-21T13:32:43;27.80;63.60
5806;DHT22;2929;50.810;8.342;2022-08-21T13:35:13;27.90;66.60
5806;DHT22;2929;50.810;8.342;2022-08-21T13:37:42;28.10;65.80
5806;DHT22;2929;50.810;8.342;2022-08-21T13:40:12;28.20;63.30
5806;DHT22;2929;50.810;8.342;2022-08-21T13:42:42;27.60;66.80
5806;DHT22;2929;50.810;8.342;2022-08-21T13:45:17;27.40;70.30
5806;DHT22;2929;50.810;8.342;2022-08-21T13:47:45;27.30;66.00
5806;DHT22;2929;50.810;8.342;2022-08-21T13:50:15;27.60;66.60
5806;DHT22;2929;50.810;8.342;2022-08-21T13:52:59;27.90;67.60
5806;DHT22;2929;50.810;8.342;2022-08-21T13:55:35;28.70;67.70
5806;DHT22;2929;50.810;8.342;2022-08-21T13:58:04;29.00;66.90
5806;DHT22;2929;50.810;8.342;2022-08-21T14:00:35;29.30;65.40
5806;DHT22;2929;50.810;8.342;2022-08-21T14:03:06;29.80;67.70
5806;DHT22;2929;50.810;8.342;2022-08-21T14:05:37;30.00;63.30
5806;DHT22;2929;50.810;8.342;2022-08-21T14:08:08;30.70;63.00
5806;DHT22;2929;50.810;8.342;2022-08-21T14:10:42;29.80;61.60
5806;DHT22;2929;50.810;8.342;2022-08-21T14:13:28;29.40;61.00
5806;DHT22;2929;50.810;8.342;2022-08-21T14:15:59;28.60;66.30
5806;DHT22;2929;50.810;8.342;2022-08-21T14:18:27;28.00;61.70
5806;DHT22;2929;50.810;8.342;2022-08-21T14:21:04;27.80;64.20
5806;DHT22;2929;50.810;8.342;2022-08-21T14:23:32;27.40;67.20
5806;DHT22;2929;50.810;8.342;2022-08-21T14:26:00;27.10;64.80
5806;DHT22;2929;50.810;8.342;2022-08-21T14:28:31;27.00;67.40
5806;DHT22;2929;50.810;8.342;2022-08-21T14:31:12;26.90;67.90
5806;DHT22;2929;50.810;8.342;2022-08-21T14:33:39;27.00;67.80
5806;DHT22;2929;50.810;8.342;2022-08-21T14:36:06;26.90;67.00
5806;DHT22;2929;50.810;8.342;2022-08-21T14:38:36;27.40;69.80
5806;DHT22;2929;50.810;8.342;2022-08-21T14:41:12;27.90;64.80
5806;DHT22;2929;50.810;8.342;2022-08-21T14:43:42;28.20;64.80
5806;DHT22;2929;50.810;8.342;2022-08-21T14:46:11;28.90;65.80
5806;DHT22;2929;50.810;8.342;2022-08-21T14:48:39;29.40;61.50
5806;DHT22;2929;50.810;8.342;2022-08-21T14:51:06;29.60;60.40
5806;DHT22;2929;50.810;8.342;2022-08-21T14:53:33;29.30;60.10
5806;DHT22;2929;50.810;8.342;2022-08-21T14:56:00;29.50;62.10
5806;DHT22;2929;50.810;8.342;2022-08-21T14:58:36;29.80;59.40
5806;DHT22;2929;50.810;8.342;2022-08-21T15:01:05;29.40;61.30
5806;DHT22;2929;50.810;8.342;2022-08-21T15:03:34;29.30;60.60
5806;DHT22;2929;50.810;8.342;2022-08-21T15:06:03;29.40;63.60
5806;DHT22;2929;50.810;8.342;2022-08-21T15:08:31;28.40;61.70
5806;DHT22;2929;50.810;8.342;2022-08-21T15:10:59;28.00;64.30
5806;DHT22;2929;50.810;8.342;2022-08-21T15:13:26;27.70;66.80
5806;DHT22;2929;50.810;8.342;2022-08-21T15:15:54;27.40;64.70
5806;DHT22;2929;50.810;8.342;2022-08-21T15:18:22;27.20;66.10
5806;DHT22;2929;50.810;8.342;2022-08-21T15:20:51;27.00;67.70
5806;DHT22;2929;50.810;8.342;2022-08-21T15:23:19;26.70;67.00
5806;DHT22;2929;50.810;8.342;2022-08-21T15:25:47;26.60;68.00
5806;DHT22;2929;50.810;8.342;2022-08-21T15:28:16;26.60;68.40
5806;DHT22;2929;50.810;8.342;2022-08-21T15:30:45;26.70;68.40
5806;DHT22;2929;50.810;8.342;2022-08-21T15:33:12;26.60;68.60
5806;DHT22;2929;50.810;8.342;2022-08-21T15:35:40;26.90;69.40
5806;DHT22;2929;50.810;8.342;2022-08-21T15:38:08;27.70;63.20
5806;DHT22;2929;50.810;8.342;2022-08-21T15:40:36;28.50;65.50
5806;DHT22;2929;50.810;8.342;2022-08-21T15:43:04;28.90;63.30
5806;DHT22;2929;50.810;8.342;2022-08-21T15:45:33;29.00;61.90
5806;DHT22;2929;50.810;8.342;2022-08-21T15:48:00;29.30;61.40
5806;DHT22;2929;50.810;8.342;2022-08-21T15:50:28;29.60;62.40
5806;DHT22;2929;50.810;8.342;2022-08-21T15:52:57;29.80;61.90
5806;DHT22;2929;50.810;8.342;2022-08-21T15:55:26;29.60;59.40
5806;DHT22;2929;50.810;8.342;2022-08-21T15:57:53;28.70;59.80
5806;DHT22;2929;50.810;8.342;2022-08-21T16:00:23;28.60;59.50
5806;DHT22;2929;50.810;8.342;2022-08-21T16:02:53;29.00;63.00
5806;DHT22;2929;50.810;8.342;2022-08-21T16:05:21;29.20;59.20
5806;DHT22;2929;50.810;8.342;2022-08-21T16:07:50;29.30;59.80
5806;DHT22;2929;50.810;8.342;2022-08-21T16:10:20;29.50;59.20
5806;DHT22;2929;50.810;8.342;2022-08-21T16:12:51;29.10;58.20
5806;DHT22;2929;50.810;8.342;2022-08-21T16:15:21;29.40;60.20
5806;DHT22;2929;50.810;8.342;2022-08-21T16:17:49;29.20;58.20
5806;DHT22;2929;50.810;8.342;2022-08-21T16:20:21;29.00;58.80
5806;DHT22;2929;50.810;8.342;2022-08-21T16:22:50;28.90;63.00
5806;DHT22;2929;50.810;8.342;2022-08-21T16:25:18;28.70;60.20
5806;DHT22;2929;50.810;8.342;2022-08-21T16:27:49;28.40;57.40